Time;durP1;ratioP1;P1;durP2;ratioP2;P2;SDS_P1;SDS_P2;PMS_P1;PMS_P2;Temp;Humidity;BMP_temperature;BMP_pressure;BME280_temperature;BME280_humidity;BME280_pressure;Samples;Min_cycle;Max_cycle;Signal;HPM_P1;HPM_P2
2022/05/26 00:02:18;;;;;;;3.87;0.87;;;15.80;1.00;;;;;;5059253;28;20676;-74
2022/05/26 00:04:45;;;;;;;2.20;0.93;;;15.80;1.00;;;;;;5041364;28;20202;-74
2022/05/26 00:07:10;;;;;;;1.40;1.00;;;15.70;2.70;;;;;;5059316;28;20179;-74
2022/05/26 00:09:36;;;;;;;2.47;1.00;;;15.70;1.00;;;;;;5059555;28;20167;-74
2022/05/26 00:12:02;;;;;;;3.60;1.07;;;15.70;74.30;;;;;;5041364;28;20199;-74
2022/05/26 00:14:27;;;;;;;1.23;0.80;;;15.70;1.00;;;;;;5041342;28;20187;-74
2022/05/26 00:16:53;;;;;;;1.80;1.00;;;15.70;1.00;;;;;;5059229;28;20548;-74
2022/05/26 00:19:19;;;;;;;4.27;1.10;;;15.70;1.00;;;;;;5059167;28;20661;-74
2022/05/26 00:21:47;;;;;;;3.37;1.00;;;15.70;1.00;;;;;;5041118;28;20195;-73
2022/05/26 00:24:13;;;;;;;2.10;0.90;;;15.70;1.00;;;;;;5059143;28;20652;-74
2022/05/26 00:26:38;;;;;;;3.37;1.00;;;15.70;76.50;;;;;;5059135;28;20183;-74
2022/05/26 00:29:04;;;;;;;2.67;1.10;;;15.70;1.00;;;;;;5041213;28;20179;-75
2022/05/26 00:31:30;;;;;;;1.53;0.93;;;15.70;1.00;;;;;;5040944;28;20221;-74
2022/05/26 00:33:56;;;;;;;1.27;0.70;;;15.70;1.00;;;;;;5059426;28;20609;-74
2022/05/26 00:36:43;;;;;;;1.33;1.00;;;15.70;19.40;;;;;;5059196;28;20233;-74
2022/05/26 00:39:16;;;;;;;2.00;1.17;;;15.70;1.00;;;;;;5058537;28;20183;-75
2022/05/26 00:41:48;;;;;;;3.13;0.80;;;15.70;99.90;;;;;;5058973;28;20183;-75
2022/05/26 00:44:15;;;;;;;2.40;0.90;;;15.70;1.00;;;;;;5040974;28;20657;-75
2022/05/26 00:46:44;;;;;;;2.33;0.70;;;15.70;11.00;;;;;;5059005;28;20171;-75
2022/05/26 00:49:18;;;;;;;2.13;0.87;;;15.70;1.00;;;;;;5059267;28;20213;-74
2022/05/26 00:51:45;;;;;;;2.67;0.80;;;15.70;95.10;;;;;;5059120;28;20673;-73
2022/05/26 00:54:17;;;;;;;2.47;0.97;;;15.70;99.90;;;;;;5041017;28;20171;-74
2022/05/26 00:57:01;;;;;;;2.03;0.90;;;15.70;99.90;;;;;;5040983;28;20164;-74
2022/05/26 00:59:45;;;;;;;2.90;1.20;;;15.70;99.90;;;;;;5056223;28;20152;-74
2022/05/26 01:02:13;;;;;;;4.90;1.10;;;15.70;1.00;;;;;;5055874;28;20195;-74
2022/05/26 01:04:50;;;;;;;4.77;1.00;;;15.70;1.00;;;;;;5037680;28;20199;-74
2022/05/26 01:07:29;;;;;;;5.60;1.50;;;15.70;99.90;;;;;;5055601;28;20572;-74
2022/05/26 01:09:56;;;;;;;4.73;1.27;;;15.60;99.90;;;;;;5055590;28;20246;-74
2022/05/26 01:12:22;;;;;;;3.50;1.60;;;15.60;1.00;;;;;;5055444;28;20232;-74
2022/05/26 01:15:07;;;;;;;2.80;1.07;;;15.60;1.00;;;;;;5055467;28;20661;-74
2022/05/26 01:17:48;;;;;;;2.97;1.77;;;15.60;1.00;;;;;;5055408;28;20182;-74
2022/05/26 01:20:25;;;;;;;3.80;1.30;;;15.70;1.00;;;;;;5055441;28;20213;-75
2022/05/26 01:23:28;;;;;;;2.43;1.00;;;15.70;1.00;;;;;;5055366;28;20195;-74
2022/05/26 01:25:59;;;;;;;2.33;1.00;;;15.70;1.00;;;;;;5055404;28;20230;-74
2022/05/26 01:28:44;;;;;;;3.73;1.00;;;15.70;1.00;;;;;;5055380;28;20182;-75
2022/05/26 01:31:28;;;;;;;2.33;1.00;;;15.70;88.80;;;;;;5055224;28;20270;-73
2022/05/26 01:34:13;;;;;;;4.53;1.10;;;15.70;67.50;;;;;;5093748;22;20237;-76
2022/05/26 01:37:18;;;;;;;3.90;1.00;;;15.60;1.00;;;;;;5073641;28;20190;-76
2022/05/26 01:39:46;;;;;;;3.83;1.10;;;15.60;99.90;;;;;;5073897;28;20187;-76
2022/05/26 01:42:36;;;;;;;1.60;0.90;;;15.60;99.90;;;;;;5075233;28;20167;-76
2022/05/26 01:45:29;;;;;;;4.33;1.10;;;15.60;99.90;;;;;;5053672;28;20279;-76
2022/05/26 01:48:01;;;;;;;3.13;1.10;;;15.60;1.00;;;;;;5053408;28;20167;-76
2022/05/26 01:50:40;;;;;;;1.20;0.80;;;15.50;1.00;;;;;;5054839;28;20153;-76
2022/05/26 01:53:28;;;;;;;3.60;1.67;;;15.50;1.00;;;;;;5054814;28;20215;-76
2022/05/26 01:56:11;;;;;;;1.20;1.10;;;15.50;1.00;;;;;;5053729;28;20164;-75
2022/05/26 01:59:09;;;;;;;3.90;0.93;;;15.70;3.10;;;;;;5053007;28;20699;-76
2022/05/26 02:01:40;;;;;;;2.93;1.47;;;15.50;1.00;;;;;;5052843;28;20175;-75
2022/05/26 02:04:13;;;;;;;3.00;1.30;;;15.50;99.90;;;;;;5053928;28;20230;-76
2022/05/26 02:06:47;;;;;;;3.17;1.33;;;15.50;1.00;;;;;;5053889;28;20633;-76
2022/05/26 02:09:17;;;;;;;2.37;1.13;;;15.50;99.90;;;;;;5053860;28;20504;-75
2022/05/26 02:12:07;;;;;;;1.87;1.00;;;15.40;1.00;;;;;;5052687;28;20277;-75
2022/05/26 02:14:44;;;;;;;3.07;1.10;;;15.40;1.00;;;;;;5053991;28;20199;-75
2022/05/26 02:17:31;;;;;;;2.23;1.20;;;15.40;1.00;;;;;;5054020;28;20258;-76
2022/05/26 02:20:05;;;;;;;1.30;1.00;;;15.40;99.90;;;;;;5053910;28;20188;-75
2022/05/26 02:22:49;;;;;;;3.40;1.53;;;15.40;99.90;;;;;;5053610;28;20181;-76
2022/05/26 02:25:25;;;;;;;2.93;1.30;;;15.40;1.00;;;;;;5052376;28;20526;-76
2022/05/26 02:27:54;;;;;;;2.60;1.60;;;15.40;1.00;;;;;;5053698;28;20243;-75
2022/05/26 02:30:21;;;;;;;2.80;1.47;;;15.40;1.00;;;;;;5053467;28;20207;-75
2022/05/26 02:32:50;;;;;;;2.70;1.20;;;15.40;1.00;;;;;;5052077;28;20204;-76
2022/05/26 02:35:16;;;;;;;2.73;1.30;;;15.30;1.00;;;;;;5053730;28;20268;-75
2022/05/26 02:37:43;;;;;;;2.17;1.20;;;15.40;16.20;;;;;;5053388;28;20250;-76
2022/05/26 02:40:10;;;;;;;2.73;1.23;;;15.40;34.50;;;;;;5052051;28;20176;-75
2022/05/26 02:42:41;;;;;;;2.90;1.40;;;15.40;56.70;;;;;;5053155;28;20305;-76
2022/05/26 02:45:07;;;;;;;3.77;1.57;;;15.40;99.90;;;;;;5051951;28;20315;-76
2022/05/26 02:48:08;;;;;;;1.20;1.10;;;15.30;99.90;;;;;;5051948;28;20221;-76
2022/05/26 02:50:45;;;;;;;1.67;1.13;;;15.30;99.90;;;;;;5053118;28;20205;-75
2022/05/26 02:53:48;;;;;;;2.80;1.27;;;15.30;1.00;;;;;;5053158;28;20190;-75
2022/05/26 02:56:37;;;;;;;2.70;1.27;;;15.30;1.00;;;;;;5053201;28;20226;-76
2022/05/26 02:59:19;;;;;;;1.87;1.20;;;15.30;1.00;;;;;;5053147;28;20159;-76
2022/05/26 03:01:57;;;;;;;4.20;1.70;;;15.30;1.00;;;;;;5052028;28;20549;-77
2022/05/26 03:04:28;;;;;;;2.60;1.60;;;15.20;1.00;;;;;;5062404;28;20191;-78
2022/05/26 03:07:01;;;;;;;3.20;1.40;;;15.20;1.00;;;;;;5058265;28;20160;-77
2022/05/26 03:09:27;;;;;;;3.00;1.50;;;15.20;1.00;;;;;;5056940;28;20175;-77
2022/05/26 03:11:57;;;;;;;2.37;1.30;;;15.20;1.00;;;;;;5057202;28;20259;-76
2022/05/26 03:14:24;;;;;;;4.43;1.50;;;15.20;1.00;;;;;;5058134;28;20274;-76
2022/05/26 03:16:50;;;;;;;5.27;1.80;;;15.20;1.00;;;;;;5057978;28;20187;-77
2022/05/26 03:19:16;;;;;;;2.87;1.40;;;15.20;1.00;;;;;;5057454;28;20168;-77
2022/05/26 03:21:42;;;;;;;5.80;1.50;;;15.20;1.00;;;;;;5057389;28;20206;-78
2022/05/26 03:24:09;;;;;;;3.67;1.40;;;15.20;1.00;;;;;;5055974;28;20192;-78
2022/05/26 03:26:35;;;;;;;2.20;1.13;;;15.20;1.00;;;;;;5055614;28;20195;-78
2022/05/26 03:29:01;;;;;;;3.93;1.50;;;15.20;1.00;;;;;;5056330;28;20194;-77
2022/05/26 03:31:27;;;;;;;4.87;1.70;;;15.20;1.00;;;;;;5055192;28;20183;-78
2022/05/26 03:42:12;;;;;;;4.90;2.50;;;15.20;99.90;;;;;;5058220;28;20214;-79
2022/05/26 03:44:38;;;;;;;7.77;3.03;;;15.10;99.90;;;;;;5057444;28;20199;-78
2022/05/26 03:47:04;;;;;;;5.37;3.17;;;15.00;99.90;;;;;;5058440;28;20167;-78
2022/05/26 03:49:30;;;;;;;4.53;2.63;;;14.90;99.90;;;;;;5055429;28;20190;-79
2022/05/26 03:51:57;;;;;;;3.73;2.63;;;14.80;99.90;;;;;;5056088;28;20258;-78
2022/05/26 03:54:23;;;;;;;5.30;2.50;;;14.80;99.90;;;;;;5055901;28;20199;-79
2022/05/26 03:56:49;;;;;;;5.50;2.90;;;14.70;99.90;;;;;;5057811;28;20168;-79
2022/05/26 03:59:14;;;;;;;4.93;2.60;;;14.70;99.90;;;;;;5056846;28;20613;-78
2022/05/26 04:01:40;;;;;;;5.97;2.63;;;14.70;99.90;;;;;;5058493;28;20175;-78
2022/05/26 04:04:05;;;;;;;4.60;2.53;;;14.70;99.90;;;;;;5054808;28;20202;-79
2022/05/26 04:06:31;;;;;;;4.53;3.07;;;14.70;99.90;;;;;;5053852;28;20195;-78
2022/05/26 04:08:56;;;;;;;5.30;2.50;;;14.60;99.90;;;;;;5056168;28;20733;-78
2022/05/26 04:11:23;;;;;;;7.77;2.80;;;14.60;99.90;;;;;;5054338;28;20220;-78
2022/05/26 04:13:51;;;;;;;5.83;3.03;;;14.60;99.90;;;;;;5054219;28;20198;-77
2022/05/26 04:16:17;;;;;;;6.97;3.27;;;14.60;99.90;;;;;;5054733;28;20164;-77
2022/05/26 04:18:42;;;;;;;5.07;2.83;;;14.50;99.90;;;;;;5056230;28;20171;-78
2022/05/26 04:21:11;;;;;;;5.07;2.80;;;14.40;99.90;;;;;;5056254;28;20171;-78
2022/05/26 04:23:37;;;;;;;5.40;3.20;;;14.30;99.90;;;;;;5054252;28;20253;-77
2022/05/26 04:26:04;;;;;;;7.20;3.27;;;14.40;99.90;;;;;;5053532;28;20207;-76
2022/05/26 04:28:30;;;;;;;6.83;3.60;;;14.30;99.90;;;;;;5053250;28;20199;-78
2022/05/26 04:30:57;;;;;;;7.33;3.20;;;14.30;99.90;;;;;;5052867;28;20171;-78
2022/05/26 04:33:23;;;;;;;7.17;3.97;;;14.40;99.90;;;;;;5054102;28;20585;-78
2022/05/26 04:35:48;;;;;;;4.53;3.70;;;14.30;99.90;;;;;;5055837;28;20550;-77
2022/05/26 04:38:14;;;;;;;7.73;3.60;;;14.30;99.90;;;;;;5057110;28;20236;-77
2022/05/26 04:40:43;;;;;;;6.87;3.37;;;14.30;99.90;;;;;;5055390;28;20286;-78
2022/05/26 04:43:10;;;;;;;5.27;3.93;;;14.30;99.90;;;;;;5055520;28;20196;-78
2022/05/26 04:45:36;;;;;;;9.87;3.87;;;14.30;99.90;;;;;;5055302;28;20203;-77
2022/05/26 04:48:01;;;;;;;7.33;3.60;;;14.30;99.90;;;;;;5057137;28;20250;-78
2022/05/26 04:50:27;;;;;;;6.10;3.47;;;14.40;99.90;;;;;;5056293;28;20183;-78
2022/05/26 04:52:53;;;;;;;7.47;3.60;;;14.40;99.90;;;;;;5057503;28;20262;-78
2022/05/26 04:55:18;;;;;;;6.10;3.47;;;14.40;99.90;;;;;;5054680;28;20203;-78
2022/05/26 04:57:44;;;;;;;6.07;3.53;;;14.40;99.90;;;;;;5055529;28;20243;-77
2022/05/26 05:00:15;;;;;;;6.90;3.90;;;14.40;99.90;;;;;;5055364;28;20175;-78
2022/05/26 05:02:41;;;;;;;6.73;4.00;;;14.40;99.90;;;;;;5057522;28;20192;-78
2022/05/26 05:05:09;;;;;;;7.07;4.40;;;14.40;99.90;;;;;;5057820;28;20219;-79
2022/05/26 05:07:34;;;;;;;5.57;3.87;;;14.50;99.90;;;;;;5058857;28;20174;-77
2022/05/26 05:10:00;;;;;;;6.83;3.80;;;14.50;99.90;;;;;;5056368;28;20262;-78
2022/05/26 05:12:26;;;;;;;5.13;3.73;;;14.50;99.90;;;;;;5056431;28;20207;-78
2022/05/26 05:14:54;;;;;;;5.50;4.17;;;14.50;99.90;;;;;;5058914;28;20279;-77
2022/05/26 05:17:22;;;;;;;11.43;5.10;;;14.50;99.90;;;;;;5057956;28;20641;-79
2022/05/26 05:19:48;;;;;;;7.57;5.17;;;14.60;99.90;;;;;;5056469;28;20224;-78
2022/05/26 05:22:26;;;;;;;11.73;5.37;;;14.50;99.90;;;;;;5055886;28;20250;-77
2022/05/26 05:24:57;;;;;;;12.47;5.80;;;14.50;99.90;;;;;;5055562;28;20175;-78
2022/05/26 05:27:44;;;;;;;14.87;5.87;;;14.50;99.90;;;;;;5056618;28;20145;-77
2022/05/26 05:30:19;;;;;;;13.37;5.73;;;14.60;99.90;;;;;;5056163;28;20529;-78
2022/05/26 05:32:56;;;;;;;11.10;6.03;;;14.60;99.90;;;;;;5055862;28;20218;-77
2022/05/26 05:35:27;;;;;;;12.63;6.50;;;14.60;99.90;;;;;;5057875;28;20289;-78
2022/05/26 05:37:53;;;;;;;10.23;5.77;;;14.60;99.90;;;;;;5055316;28;20167;-79
2022/05/26 05:40:19;;;;;;;10.93;5.87;;;14.70;99.90;;;;;;5054272;28;20172;-77
2022/05/26 05:42:45;;;;;;;12.20;5.50;;;14.70;99.90;;;;;;5056643;28;20576;-79
2022/05/26 05:45:10;;;;;;;12.00;5.93;;;14.70;99.90;;;;;;5055611;28;20553;-78
2022/05/26 05:47:36;;;;;;;11.23;6.53;;;14.80;99.90;;;;;;5056289;28;20179;-78
2022/05/26 05:50:02;;;;;;;11.30;6.40;;;14.80;99.90;;;;;;5054164;28;20172;-77
2022/05/26 05:52:28;;;;;;;13.30;5.93;;;14.80;99.90;;;;;;5055961;28;20686;-77
2022/05/26 05:54:55;;;;;;;17.70;6.70;;;14.80;99.90;;;;;;5055923;28;20180;-77
2022/05/26 05:57:21;;;;;;;14.37;6.30;;;14.90;99.90;;;;;;5055154;28;20186;-78
2022/05/26 05:59:46;;;;;;;19.60;7.67;;;14.90;99.90;;;;;;5055545;28;20176;-77
2022/05/26 06:02:13;;;;;;;17.37;7.27;;;14.90;99.90;;;;;;5055471;28;20576;-78
2022/05/26 06:04:44;;;;;;;13.40;7.53;;;15.00;99.90;;;;;;5054978;28;20179;-78
2022/05/26 06:07:21;;;;;;;13.40;7.53;;;15.00;99.90;;;;;;5053440;28;20199;-77
2022/05/26 06:09:47;;;;;;;13.30;7.83;;;15.10;99.90;;;;;;5054887;28;20216;-77
2022/05/26 06:12:14;;;;;;;17.37;7.60;;;15.10;99.90;;;;;;5055124;28;20310;-77
2022/05/26 06:14:42;;;;;;;14.40;8.47;;;15.10;99.90;;;;;;5055179;28;20182;-77
2022/05/26 06:17:08;;;;;;;15.20;7.93;;;15.20;99.90;;;;;;5054096;28;20190;-77
2022/05/26 06:19:35;;;;;;;19.63;8.27;;;15.20;99.90;;;;;;5054983;28;20707;-78
2022/05/26 06:22:12;;;;;;;15.90;7.90;;;15.20;99.90;;;;;;5055541;28;20183;-78
2022/05/26 06:24:38;;;;;;;17.70;7.80;;;15.30;99.90;;;;;;5053857;28;20233;-77
2022/05/26 06:29:49;;;;;;;18.20;8.43;;;15.30;99.90;;;;;;5054663;28;20172;-77
2022/05/26 06:29:51;;;;;;;13.73;7.63;;;15.30;99.90;;;;;;5054997;28;20168;-78
2022/05/26 06:37:47;;;;;;;16.50;9.43;;;15.30;99.90;;;;;;5060478;28;20171;-76
2022/05/26 06:40:14;;;;;;;21.53;8.53;;;15.30;99.90;;;;;;5056929;28;20175;-77
2022/05/26 06:42:40;;;;;;;17.93;9.30;;;15.30;99.90;;;;;;5054978;28;20278;-78
2022/05/26 06:45:06;;;;;;;17.93;8.43;;;15.30;99.90;;;;;;5055034;28;20286;-78
2022/05/26 06:47:31;;;;;;;17.63;8.67;;;15.40;99.90;;;;;;5056019;28;20175;-77
2022/05/26 06:49:57;;;;;;;17.73;9.00;;;15.40;99.90;;;;;;5056170;28;20164;-78
2022/05/26 06:52:24;;;;;;;17.87;8.47;;;15.40;99.90;;;;;;5055061;28;20667;-78
2022/05/26 06:54:49;;;;;;;17.00;8.70;;;15.50;99.90;;;;;;5055283;28;20164;-77
2022/05/26 06:57:16;;;;;;;19.40;8.73;;;15.40;99.90;;;;;;5055011;28;20191;-78
2022/05/26 06:59:42;;;;;;;15.43;9.10;;;15.50;99.90;;;;;;5054472;28;20253;-78
2022/05/26 07:02:10;;;;;;;17.30;8.40;;;15.40;99.90;;;;;;5055622;28;20171;-78
2022/05/26 07:04:38;;;;;;;18.50;8.23;;;15.40;99.90;;;;;;5054579;28;20276;-78
2022/05/26 07:07:04;;;;;;;13.80;8.67;;;15.50;99.90;;;;;;5053931;28;20230;-79
2022/05/26 07:09:30;;;;;;;13.33;8.73;;;15.50;99.90;;;;;;5054235;28;20176;-78
2022/05/26 07:11:56;;;;;;;15.60;8.63;;;15.50;99.90;;;;;;5055601;28;20634;-78
2022/05/26 07:14:22;;;;;;;18.20;8.37;;;15.60;99.90;;;;;;5054302;28;20191;-78
2022/05/26 07:16:48;;;;;;;17.40;8.17;;;15.60;99.90;;;;;;5053075;28;20169;-78
2022/05/26 07:19:15;;;;;;;18.77;8.77;;;15.70;99.90;;;;;;5054205;28;20171;-78
2022/05/26 07:21:46;;;;;;;13.80;7.63;;;15.80;99.90;;;;;;5053008;28;20179;-78
2022/05/26 07:24:13;;;;;;;12.97;7.10;;;15.80;99.90;;;;;;5052493;28;20192;-77
2022/05/26 07:26:39;;;;;;;11.20;7.43;;;15.90;99.90;;;;;;5052183;28;20199;-78
2022/05/26 07:29:04;;;;;;;14.80;7.67;;;15.90;99.90;;;;;;5052829;28;20186;-77
2022/05/26 07:31:30;;;;;;;13.27;8.40;;;16.00;99.90;;;;;;5053733;28;20171;-77
2022/05/26 07:33:56;;;;;;;14.17;7.33;;;16.10;99.90;;;;;;5078350;22;20231;-73
2022/05/26 07:42:00;;;;;;;15.90;7.93;;;16.10;99.90;;;;;;5052843;28;20294;-73
2022/05/26 07:44:28;;;;;;;12.03;6.90;;;16.20;99.90;;;;;;5052442;28;20280;-73
2022/05/26 07:46:53;;;;;;;11.10;6.77;;;16.20;99.90;;;;;;5052458;28;20533;-73
2022/05/26 07:49:19;;;;;;;13.87;7.27;;;16.20;99.90;;;;;;5052382;28;20164;-72
2022/05/26 07:51:44;;;;;;;13.73;6.87;;;16.20;99.90;;;;;;5052906;28;20231;-73
2022/05/26 07:54:10;;;;;;;13.20;6.47;;;16.20;99.90;;;;;;5052328;28;20194;-72
2022/05/26 07:56:39;;;;;;;12.67;6.57;;;16.30;99.90;;;;;;5052306;28;20175;-72
2022/05/26 07:59:07;;;;;;;14.83;7.00;;;16.40;99.90;;;;;;5052936;28;20182;-73
2022/05/26 08:01:33;;;;;;;10.33;6.80;;;16.50;99.90;;;;;;5052374;28;20199;-73
2022/05/26 08:03:59;;;;;;;16.00;6.67;;;16.60;99.90;;;;;;5052544;28;20216;-73
2022/05/26 08:06:25;;;;;;;13.13;7.10;;;16.60;99.90;;;;;;5052367;28;20191;-73
2022/05/26 08:08:51;;;;;;;11.63;5.93;;;16.60;99.90;;;;;;5054625;28;20179;-73
2022/05/26 08:11:16;;;;;;;13.43;6.50;;;16.70;1.00;;;;;;5038428;28;20179;-74
2022/05/26 08:13:42;;;;;;;9.23;5.70;;;16.60;99.90;;;;;;5056168;28;20195;-74
2022/05/26 08:16:08;;;;;;;11.70;5.73;;;16.70;1.00;;;;;;5056537;28;20232;-73
2022/05/26 08:18:35;;;;;;;9.80;5.87;;;16.80;99.90;;;;;;5056085;28;20180;-74
2022/05/26 08:21:12;;;;;;;11.17;5.47;;;17.00;1.00;;;;;;5056052;28;20194;-75
2022/05/26 08:23:40;;;;;;;12.60;6.13;;;17.10;99.90;;;;;;5037975;28;20195;-76
2022/05/26 08:26:05;;;;;;;13.50;5.03;;;17.10;1.00;;;;;;5055923;28;20653;-74
2022/05/26 08:28:31;;;;;;;11.60;5.17;;;17.10;1.00;;;;;;5056508;28;20168;-74
2022/05/26 08:30:59;;;;;;;8.93;4.87;;;17.20;1.00;;;;;;5038237;28;20174;-74
2022/05/26 08:33:25;;;;;;;10.97;4.77;;;17.20;99.90;;;;;;5055884;28;20204;-75
2022/05/26 08:35:59;;;;;;;7.90;4.60;;;17.30;99.90;;;;;;5056184;28;20159;-74
2022/05/26 08:38:25;;;;;;;12.23;5.03;;;17.30;1.00;;;;;;5038233;28;20652;-74
2022/05/26 08:40:51;;;;;;;8.63;5.73;;;17.30;1.00;;;;;;5038028;28;20257;-75
2022/05/26 08:43:24;;;;;;;9.83;5.20;;;17.20;99.90;;;;;;5055448;28;20306;-75
2022/05/26 08:45:51;;;;;;;11.33;5.23;;;17.20;99.90;;;;;;5055626;28;20270;-75
2022/05/26 08:48:51;;;;;;;12.40;5.40;;;17.20;1.00;;;;;;5055692;28;20239;-74
2022/05/26 08:51:43;;;;;;;7.80;5.23;;;17.40;99.90;;;;;;5049824;28;20734;-74
2022/05/26 08:54:19;;;;;;;13.13;6.07;;;17.50;99.90;;;;;;5037552;28;20196;-74
2022/05/26 08:56:47;;;;;;;11.77;5.60;;;17.70;99.90;;;;;;5055473;28;20155;-74
2022/05/26 08:59:15;;;;;;;12.17;5.20;;;17.80;1.00;;;;;;5055329;28;20254;-74
2022/05/26 09:01:42;;;;;;;9.30;5.63;;;17.80;99.90;;;;;;5055377;28;20167;-74
2022/05/26 09:04:10;;;;;;;9.30;5.70;;;17.90;1.00;;;;;;5055224;28;20214;-75
2022/05/26 09:12:55;;;;;;;9.03;4.67;;;17.90;1.00;;;;;;5037273;28;20222;-76
2022/05/26 09:15:01;;;;;;;10.47;6.00;;;18.20;99.90;;;;;;5055262;28;20230;-75
2022/05/26 09:17:29;;;;;;;9.67;5.03;;;18.10;1.00;;;;;;5055101;28;20218;-75
2022/05/26 09:19:55;;;;;;;9.47;5.23;;;18.10;1.00;;;;;;5036439;28;20633;-76
2022/05/26 09:22:26;;;;;;;9.37;5.13;;;18.00;1.00;;;;;;5056073;28;20487;-74
2022/05/26 09:24:52;;;;;;;11.07;4.80;;;18.00;1.00;;;;;;5036931;28;20252;-75
2022/05/26 09:27:30;;;;;;;10.33;4.83;;;18.00;1.00;;;;;;5054858;28;20196;-74
2022/05/26 09:30:19;;;;;;;12.70;5.10;;;18.00;1.00;;;;;;5036917;28;20168;-74
2022/05/26 09:32:45;;;;;;;11.27;4.40;;;18.00;99.90;;;;;;5054888;28;20243;-76
2022/05/26 09:35:32;;;;;;;7.33;3.93;;;18.10;1.00;;;;;;5036780;28;20541;-75
2022/05/26 09:38:01;;;;;;;8.27;4.23;;;18.10;99.90;;;;;;5054964;28;20156;-74
2022/05/26 09:40:35;;;;;;;9.57;4.03;;;18.20;99.90;;;;;;5054958;28;20168;-75
2022/05/26 09:43:08;;;;;;;8.10;3.37;;;18.10;99.90;;;;;;5055322;28;20163;-75
2022/05/26 09:45:45;;;;;;;7.43;3.90;;;18.10;99.90;;;;;;5055191;28;20650;-75
2022/05/26 09:48:17;;;;;;;8.50;4.07;;;17.90;99.90;;;;;;5054859;28;20179;-75
2022/05/26 09:50:49;;;;;;;7.13;3.30;;;18.10;1.00;;;;;;5054868;28;20164;-74
2022/05/26 09:53:31;;;;;;;7.57;3.10;;;18.20;1.00;;;;;;5037049;28;20261;-74
2022/05/26 09:55:57;;;;;;;5.03;2.73;;;18.40;99.90;;;;;;5054766;28;20264;-75
2022/05/26 09:58:34;;;;;;;5.93;3.20;;;18.50;1.00;;;;;;5054958;28;20180;-74
2022/05/26 10:01:28;;;;;;;9.40;2.90;;;18.60;33.60;;;;;;5036763;28;20176;-74
2022/05/26 10:04:13;;;;;;;8.20;3.60;;;18.70;1.00;;;;;;5036653;28;20252;-76
2022/05/26 10:06:44;;;;;;;5.40;2.87;;;18.80;15.20;;;;;;5054503;28;20175;-75
2022/05/26 10:09:27;;;;;;;3.40;2.37;;;18.70;1.00;;;;;;5054534;28;20156;-75
2022/05/26 10:12:22;;;;;;;4.70;2.63;;;18.70;1.00;;;;;;5035902;28;20179;-75
2022/05/26 10:14:56;;;;;;;5.63;2.47;;;18.90;1.00;;;;;;5053749;28;20242;-75
2022/05/26 10:17:33;;;;;;;6.50;2.40;;;19.00;1.00;;;;;;5035860;28;20169;-77
2022/05/26 10:20:36;;;;;;;4.87;2.20;;;19.00;99.90;;;;;;5054237;28;20156;-75
2022/05/26 10:23:24;;;;;;;7.57;2.47;;;18.90;1.00;;;;;;5036081;28;20199;-76
2022/05/26 10:26:05;;;;;;;4.57;1.80;;;18.70;1.00;;;;;;5035929;28;20199;-75
2022/05/26 10:29:01;;;;;;;5.50;2.20;;;18.50;1.00;;;;;;5053728;28;20178;-75
2022/05/26 10:31:27;;;;;;;7.50;2.17;;;18.40;1.00;;;;;;5052541;28;20207;-75
2022/05/26 10:34:02;;;;;;;6.90;2.50;;;18.50;1.00;;;;;;5053426;28;20247;-75
2022/05/26 10:36:43;;;;;;;7.37;2.20;;;18.60;1.00;;;;;;5053758;28;20175;-75
2022/05/26 10:39:37;;;;;;;4.50;2.03;;;18.80;1.00;;;;;;5035559;28;20715;-75
2022/05/26 10:42:10;;;;;;;6.43;2.40;;;18.70;1.00;;;;;;5053538;28;20163;-75
2022/05/26 10:44:55;;;;;;;5.80;2.43;;;18.90;99.90;;;;;;5035396;28;20282;-75
2022/05/26 10:47:28;;;;;;;4.67;2.07;;;19.10;99.90;;;;;;5053439;28;20163;-76
2022/05/26 10:50:19;;;;;;;5.00;2.37;;;19.30;99.90;;;;;;5053698;28;20159;-75
2022/05/26 10:52:59;;;;;;;7.80;2.63;;;19.20;99.90;;;;;;5053469;28;20171;-75
2022/05/26 10:55:57;;;;;;;7.47;2.53;;;19.00;1.00;;;;;;5035381;28;20163;-73
2022/05/26 10:59:04;;;;;;;11.03;2.43;;;19.10;1.00;;;;;;5053199;28;20262;-75
2022/05/26 11:01:34;;;;;;;4.83;2.00;;;19.00;99.90;;;;;;5006851;28;20198;-74
2022/05/26 11:04:23;;;;;;;8.60;1.93;;;19.20;93.00;;;;;;5053065;28;20187;-75
2022/05/26 11:06:51;;;;;;;4.00;1.93;;;19.30;1.00;;;;;;5053101;28;20196;-75
2022/05/26 11:09:42;;;;;;;4.47;1.83;;;19.40;99.90;;;;;;5053170;28;20167;-75
2022/05/26 11:12:14;;;;;;;5.53;1.80;;;19.40;99.90;;;;;;5035168;28;20174;-75
2022/05/26 11:17:53;;;;;;;5.20;1.70;;;19.50;99.90;;;;;;5053736;28;20175;-75
2022/05/26 11:20:23;;;;;;;3.97;1.87;;;19.40;99.90;;;;;;5035074;28;20629;-76
2022/05/26 11:22:51;;;;;;;3.63;2.03;;;19.50;99.90;;;;;;5035003;28;20581;-76
2022/05/26 11:25:26;;;;;;;4.53;2.23;;;19.80;1.00;;;;;;5052706;28;20203;-77
2022/05/26 11:28:33;;;;;;;3.63;2.03;;;19.70;1.00;;;;;;5052736;28;20155;-76
2022/05/26 11:36:52;;;;;;;4.23;1.80;;;20.00;99.50;;;;;;5053324;28;20170;-76
2022/05/26 11:39:22;;;;;;;3.50;1.77;;;19.90;99.90;;;;;;5052803;28;20531;-75
2022/05/26 11:41:56;;;;;;;6.17;2.00;;;20.10;99.90;;;;;;5034576;28;20215;-76
2022/05/26 11:44:53;;;;;;;6.13;1.97;;;20.20;99.90;;;;;;5052320;28;20202;-75
2022/05/26 11:47:34;;;;;;;4.87;2.07;;;20.20;1.00;;;;;;5034726;28;20227;-76
2022/05/26 11:50:04;;;;;;;6.03;2.20;;;20.30;1.00;;;;;;5052403;28;20155;-75
2022/05/26 11:52:36;;;;;;;6.97;2.17;;;20.30;10.80;;;;;;5034506;28;20535;-76
2022/05/26 11:55:10;;;;;;;7.27;2.10;;;20.50;1.00;;;;;;5034390;28;20192;-75
2022/05/26 11:57:48;;;;;;;5.87;2.50;;;20.60;1.00;;;;;;5052391;28;20183;-75
2022/05/26 12:00:20;;;;;;;8.33;2.23;;;20.70;1.00;;;;;;5052425;28;20171;-75
2022/05/26 12:02:50;;;;;;;4.90;1.80;;;20.60;1.00;;;;;;5052277;28;20589;-76
2022/05/26 12:05:28;;;;;;;7.73;2.50;;;20.80;1.00;;;;;;5034425;28;20218;-75
2022/05/26 12:08:00;;;;;;;5.30;2.37;;;20.80;99.90;;;;;;5034390;28;20653;-75
2022/05/26 12:10:28;;;;;;;4.13;1.87;;;21.00;1.00;;;;;;5052403;28;20549;-75
2022/05/26 12:13:27;;;;;;;6.23;1.93;;;20.90;99.90;;;;;;5052423;28;20262;-75
2022/05/26 12:16:14;;;;;;;5.33;1.93;;;20.90;99.90;;;;;;5052515;28;20156;-76
2022/05/26 12:18:50;;;;;;;5.53;2.13;;;20.90;99.90;;;;;;5052334;28;20175;-76
2022/05/26 12:21:39;;;;;;;3.37;2.10;;;20.60;15.60;;;;;;5034388;28;20167;-74
2022/05/26 12:24:33;;;;;;;5.27;2.10;;;20.50;99.90;;;;;;5052708;28;20732;-75
2022/05/26 12:27:00;;;;;;;4.70;1.73;;;20.50;99.90;;;;;;5051983;28;20202;-75
2022/05/26 12:30:01;;;;;;;4.57;1.83;;;20.20;1.00;;;;;;5034392;28;20174;-76
2022/05/26 12:32:32;;;;;;;4.53;1.90;;;20.30;1.00;;;;;;5034661;28;20174;-76
2022/05/26 12:35:18;;;;;;;4.20;1.60;;;20.40;1.00;;;;;;5052302;28;20199;-75
2022/05/26 12:37:59;;;;;;;5.07;1.90;;;20.30;99.90;;;;;;5052752;28;20571;-74
2022/05/26 12:40:42;;;;;;;6.03;1.87;;;20.20;99.90;;;;;;5052662;28;20509;-75
2022/05/26 12:43:29;;;;;;;6.40;1.53;;;20.30;1.00;;;;;;5052784;28;20234;-75
2022/05/26 12:46:33;;;;;;;5.67;1.87;;;20.20;1.00;;;;;;5052372;28;20180;-75
2022/05/26 12:49:12;;;;;;;4.40;1.90;;;20.40;1.00;;;;;;5022002;28;20649;-77
2022/05/26 12:51:39;;;;;;;3.83;2.00;;;20.60;99.90;;;;;;5052449;28;20164;-75
2022/05/26 12:54:09;;;;;;;3.73;1.90;;;20.50;99.90;;;;;;5034366;28;20677;-75
2022/05/26 12:56:56;;;;;;;6.03;2.20;;;20.30;7.10;;;;;;5037705;28;20195;-75
2022/05/26 12:59:25;;;;;;;4.47;2.00;;;20.20;99.90;;;;;;5056271;28;20638;-75
2022/05/26 13:01:51;;;;;;;7.63;1.80;;;20.40;1.00;;;;;;5055932;28;20171;-76
2022/05/26 13:04:21;;;;;;;5.77;1.80;;;20.50;99.90;;;;;;5037860;28;20241;-77
2022/05/26 13:06:50;;;;;;;4.17;1.33;;;20.60;99.90;;;;;;5037756;28;20194;-75
2022/05/26 13:09:25;;;;;;;7.40;1.87;;;20.80;1.00;;;;;;5055636;28;20199;-75
2022/05/26 13:12:01;;;;;;;2.63;1.40;;;20.90;99.90;;;;;;5055701;28;20242;-74
2022/05/26 13:14:28;;;;;;;2.70;1.60;;;20.80;99.90;;;;;;5037627;28;20196;-76
2022/05/26 13:17:11;;;;;;;6.10;1.77;;;20.60;99.90;;;;;;5037640;28;20186;-75
2022/05/26 13:19:46;;;;;;;5.87;1.87;;;20.60;99.90;;;;;;5037640;28;20168;-75
2022/05/26 13:22:33;;;;;;;3.63;1.70;;;20.50;1.00;;;;;;5055511;28;20186;-76
2022/05/26 13:25:13;;;;;;;2.93;1.40;;;20.30;99.90;;;;;;5055028;28;20653;-76
2022/05/26 13:28:03;;;;;;;7.33;2.10;;;20.10;1.00;;;;;;5037438;28;20548;-75
2022/05/26 13:33:24;;;;;;;5.10;1.90;;;20.10;1.00;;;;;;5055305;28;20219;-76
2022/05/26 13:35:50;;;;;;;8.23;1.57;;;20.30;1.00;;;;;;5096377;22;20242;-79
2022/05/26 13:38:28;;;;;;;3.80;1.67;;;20.20;1.00;;;;;;5076388;28;20703;-78
2022/05/26 13:40:54;;;;;;;4.73;1.50;;;20.10;1.00;;;;;;5074927;28;20197;-77
2022/05/26 13:43:20;;;;;;;4.90;1.57;;;20.00;1.00;;;;;;5075895;28;20566;-78
2022/05/26 13:45:46;;;;;;;3.80;1.47;;;20.00;1.00;;;;;;5075770;28;20209;-78
2022/05/26 13:48:21;;;;;;;4.93;1.70;;;20.00;1.00;;;;;;5074094;28;20175;-77
2022/05/26 13:50:53;;;;;;;7.30;1.90;;;20.00;1.00;;;;;;5074271;28;20178;-78
2022/05/26 13:53:20;;;;;;;4.83;1.50;;;19.90;1.00;;;;;;5074257;28;20163;-78
2022/05/26 13:55:47;;;;;;;4.10;1.60;;;20.00;1.00;;;;;;5074072;28;20253;-78